Time;durP1;ratioP1;P1;durP2;ratioP2;P2;SDS_P1;SDS_P2;PMS_P1;PMS_P2;Temp;Humidity;BMP_temperature;BMP_pressure;BME280_temperature;BME280_humidity;BME280_pressure;Samples;Min_cycle;Max_cycle;Signal;HPM_P1;HPM_P2
2023/05/07 00:00:09;;;;;;;4.45;3.10;;;;;;;16.70;71.44;99360.69;335282;29;5062;-73
2023/05/07 00:00:22;;;;;;;4.25;3.08;;;;;;;16.71;71.40;99362.34;331892;28;18029;-72
2023/05/07 00:00:34;;;;;;;4.07;3.03;;;;;;;16.72;71.70;99364.06;336104;28;4667;-72
2023/05/07 00:00:46;;;;;;;3.80;3.00;;;;;;;16.74;71.45;99363.94;331779;28;18145;-72
2023/05/07 00:00:59;;;;;;;3.63;2.97;;;;;;;16.75;71.58;99355.16;335708;28;4542;-73
2023/05/07 00:01:11;;;;;;;3.67;2.97;;;;;;;16.73;71.30;99357.84;331271;29;17910;-72
2023/05/07 00:01:23;;;;;;;3.75;2.92;;;;;;;16.71;71.28;99357.09;335167;29;5478;-72
2023/05/07 00:01:35;;;;;;;4.10;2.90;;;;;;;16.74;71.32;99356.94;333002;29;5428;-72
2023/05/07 00:01:47;;;;;;;4.82;3.25;;;;;;;16.75;71.43;99361.22;333415;28;18657;-73
2023/05/07 00:01:59;;;;;;;4.90;3.30;;;;;;;16.76;71.68;99357.69;335814;28;5378;-73
2023/05/07 00:02:11;;;;;;;4.63;3.50;;;;;;;16.76;72.19;99356.81;331672;29;19292;-73
2023/05/07 00:02:23;;;;;;;5.10;3.20;;;;;;;16.76;71.88;99362.94;333929;29;4656;-73
2023/05/07 00:02:37;;;;;;;4.93;3.10;;;;;;;16.76;71.59;99360.31;331865;29;9814;-72
2023/05/07 00:02:49;;;;;;;4.78;3.10;;;;;;;16.79;71.37;99361.88;333517;29;5001;-73
2023/05/07 00:03:01;;;;;;;4.75;3.50;;;;;;;16.77;71.46;99363.75;331332;29;18371;-72
2023/05/07 00:03:14;;;;;;;5.13;3.70;;;;;;;16.74;71.44;99367.44;334386;29;4656;-72
2023/05/07 00:03:27;;;;;;;4.38;3.35;;;;;;;16.76;71.49;99359.44;333350;29;5425;-72
2023/05/07 00:03:39;;;;;;;4.78;3.20;;;;;;;16.80;71.13;99360.09;332746;29;17150;-73
2023/05/07 00:03:51;;;;;;;4.47;3.22;;;;;;;16.77;71.34;99363.75;328322;29;10973;-73
2023/05/07 00:04:04;;;;;;;4.13;3.20;;;;;;;16.74;71.33;99359.56;333139;29;4491;-72
2023/05/07 00:04:16;;;;;;;4.15;3.30;;;;;;;16.74;71.62;99356.06;331275;29;18547;-72
2023/05/07 00:04:35;;;;;;;4.25;3.20;;;;;;;16.71;71.82;99357.09;334458;29;4535;-73
2023/05/07 00:04:47;;;;;;;5.10;3.20;;;;;;;16.73;71.85;99359.66;329091;29;18799;-73
2023/05/07 00:04:59;;;;;;;5.10;3.13;;;;;;;16.71;71.41;99362.34;331860;29;5522;-72
2023/05/07 00:05:12;;;;;;;4.68;3.20;;;;;;;16.71;71.55;99356.28;329864;29;17846;-72
2023/05/07 00:05:25;;;;;;;4.05;3.10;;;;;;;16.70;71.58;99358.06;332627;29;5099;-73
2023/05/07 00:05:37;;;;;;;3.55;3.00;;;;;;;16.67;71.62;99353.00;330034;29;18404;-72
2023/05/07 00:05:49;;;;;;;3.65;3.10;;;;;;;16.66;71.92;99355.72;333523;29;5560;-73
2023/05/07 00:06:01;;;;;;;3.67;3.10;;;;;;;16.67;71.88;99358.25;331535;29;18372;-73
2023/05/07 00:06:14;;;;;;;4.05;3.08;;;;;;;16.63;72.24;99359.38;334033;29;4563;-73
2023/05/07 00:06:28;;;;;;;4.75;3.10;;;;;;;16.61;72.54;99361.25;327988;29;16721;-73
2023/05/07 00:06:40;;;;;;;4.45;3.28;;;;;;;16.55;73.03;99356.38;334547;29;5315;-73
2023/05/07 00:06:52;;;;;;;4.55;3.40;;;;;;;16.56;72.65;99355.47;331283;28;18924;-72
2023/05/07 00:07:05;;;;;;;4.05;3.30;;;;;;;16.55;72.80;99359.00;334643;29;4819;-72
2023/05/07 00:07:17;;;;;;;3.83;3.10;;;;;;;16.56;72.54;99356.28;330662;29;18272;-72
2023/05/07 00:07:29;;;;;;;4.35;3.13;;;;;;;16.59;72.57;99355.25;335242;29;5142;-73
2023/05/07 00:07:41;;;;;;;4.70;3.10;;;;;;;16.60;72.43;99362.22;331221;29;16550;-72
2023/05/07 00:07:53;;;;;;;4.20;3.22;;;;;;;16.55;72.18;99356.38;334669;29;5367;-72
2023/05/07 00:08:05;;;;;;;4.38;3.20;;;;;;;16.56;72.26;99358.09;334421;29;5234;-72
2023/05/07 00:08:17;;;;;;;4.30;3.30;;;;;;;16.54;72.33;99366.03;332046;29;18309;-72
2023/05/07 00:08:30;;;;;;;4.50;3.22;;;;;;;16.59;72.43;99360.50;333462;29;5543;-72
2023/05/07 00:08:42;;;;;;;4.18;3.10;;;;;;;16.49;72.26;99359.38;331774;29;18254;-73
2023/05/07 00:08:54;;;;;;;4.40;3.17;;;;;;;16.49;72.61;99362.84;333885;29;4678;-72
2023/05/07 00:09:06;;;;;;;4.63;3.35;;;;;;;16.49;72.38;99357.59;331766;29;4558;-72
2023/05/07 00:09:18;;;;;;;4.65;3.38;;;;;;;16.52;72.43;99353.94;336023;28;5005;-72
2023/05/07 00:09:30;;;;;;;4.93;3.40;;;;;;;16.54;72.59;99363.41;333574;29;5906;-73
2023/05/07 00:09:43;;;;;;;5.07;3.33;;;;;;;16.53;73.17;99364.34;333269;29;18413;-72
2023/05/07 00:09:55;;;;;;;4.47;3.15;;;;;;;16.58;72.57;99361.47;334868;29;5782;-72
2023/05/07 00:10:07;;;;;;;4.70;3.20;;;;;;;16.60;72.35;99362.22;333031;29;18951;-72
2023/05/07 00:10:20;;;;;;;4.90;3.33;;;;;;;16.53;72.16;99360.88;334523;29;5372;-72
2023/05/07 00:10:35;;;;;;;4.60;3.35;;;;;;;16.51;72.55;99365.38;332136;29;18306;-72
2023/05/07 00:10:47;;;;;;;3.47;3.15;;;;;;;16.54;72.53;99359.94;331320;29;17856;-73
2023/05/07 00:10:59;;;;;;;3.20;2.90;;;;;;;16.54;72.64;99365.19;334329;29;4601;-73
2023/05/07 00:11:13;;;;;;;3.17;2.88;;;;;;;16.51;72.24;99362.75;331822;29;4773;-72
2023/05/07 00:11:25;;;;;;;3.60;3.10;;;;;;;16.52;72.42;99367.06;333445;29;4689;-73
2023/05/07 00:11:37;;;;;;;3.75;3.20;;;;;;;16.51;72.18;99360.13;331442;29;18212;-73
2023/05/07 00:11:50;;;;;;;3.33;3.03;;;;;;;16.52;72.15;99367.06;334768;29;4521;-73
2023/05/07 00:12:02;;;;;;;3.58;3.05;;;;;;;16.48;72.37;99360.31;331925;29;17501;-72
2023/05/07 00:12:14;;;;;;;3.83;2.97;;;;;;;16.51;72.44;99360.13;333626;29;4807;-73
2023/05/07 00:12:26;;;;;;;4.93;3.22;;;;;;;16.52;72.58;99361.81;330555;29;16404;-73
2023/05/07 00:12:40;;;;;;;4.32;3.05;;;;;;;16.55;72.27;99361.63;332784;29;4724;-72
2023/05/07 00:12:52;;;;;;;4.05;3.00;;;;;;;16.59;72.37;99363.13;331376;29;18052;-73
2023/05/07 00:13:07;;;;;;;3.50;2.90;;;;;;;16.61;72.35;99366.50;334566;29;4738;-72
2023/05/07 00:13:19;;;;;;;5.15;3.00;;;;;;;16.65;72.14;99365.38;331705;29;19007;-72
2023/05/07 00:13:35;;;;;;;5.55;3.10;;;;;;;16.65;71.93;99362.75;331760;29;4743;-72
2023/05/07 00:13:48;;;;;;;3.80;3.15;;;;;;;16.67;71.86;99358.25;331122;29;17767;-73
2023/05/07 00:14:02;;;;;;;3.53;3.10;;;;;;;16.66;71.62;99367.06;335346;29;4575;-72
2023/05/07 00:14:14;;;;;;;3.90;3.13;;;;;;;16.64;71.79;99366.31;334491;28;19020;-73
2023/05/07 00:14:26;;;;;;;4.57;3.17;;;;;;;16.65;72.11;99365.38;330993;28;5354;-72
2023/05/07 00:14:38;;;;;;;4.38;3.13;;;;;;;16.54;71.75;99359.94;335347;28;18449;-72
2023/05/07 00:14:50;;;;;;;4.47;3.15;;;;;;;16.47;72.07;99364.72;335327;28;4568;-72
2023/05/07 00:15:06;;;;;;;3.70;3.20;;;;;;;16.51;72.55;99362.75;331842;29;19184;-73
2023/05/07 00:15:18;;;;;;;3.55;3.17;;;;;;;16.53;73.01;99358.25;330686;29;16565;-72
2023/05/07 00:15:30;;;;;;;3.88;3.20;;;;;;;16.57;72.68;99362.38;333037;29;5350;-72
2023/05/07 00:15:43;;;;;;;4.68;3.30;;;;;;;16.61;72.44;99369.13;327944;29;18184;-72
2023/05/07 00:15:56;;;;;;;6.70;3.20;;;;;;;16.63;72.35;99364.63;331349;29;4589;-72
2023/05/07 00:16:08;;;;;;;7.32;3.20;;;;;;;16.65;72.30;99368.00;327292;29;19266;-72
2023/05/07 00:16:20;;;;;;;4.68;3.05;;;;;;;16.65;72.16;99362.75;329884;29;4679;-72
2023/05/07 00:16:33;;;;;;;4.03;3.00;;;;;;;16.58;72.07;99362.28;328259;29;18116;-73
2023/05/07 00:16:45;;;;;;;3.72;3.10;;;;;;;16.56;72.33;99368.59;332214;29;5056;-72
2023/05/07 00:16:57;;;;;;;3.40;3.10;;;;;;;16.49;72.20;99367.25;329403;29;17973;-73
2023/05/07 00:17:09;;;;;;;3.75;3.05;;;;;;;16.52;72.47;99367.06;329855;29;4615;-73
2023/05/07 00:17:21;;;;;;;5.10;3.00;;;;;;;16.57;72.42;99367.63;327204;29;18301;-73
2023/05/07 00:17:34;;;;;;;5.55;3.08;;;;;;;16.58;72.41;99366.72;329155;29;4601;-72
2023/05/07 00:17:46;;;;;;;4.43;3.20;;;;;;;16.58;72.12;99366.72;329535;29;4545;-73
2023/05/07 00:17:59;;;;;;;4.00;3.15;;;;;;;16.60;72.35;99370.06;328135;29;18097;-72
2023/05/07 00:18:11;;;;;;;4.65;3.25;;;;;;;16.57;72.40;99363.22;328285;29;9299;-72
2023/05/07 00:18:23;;;;;;;4.55;3.22;;;;;;;16.58;72.77;99362.28;331970;29;4846;-73
2023/05/07 00:18:35;;;;;;;3.97;3.20;;;;;;;16.58;72.60;99367.53;332084;29;5114;-73
2023/05/07 00:18:48;;;;;;;3.90;3.00;;;;;;;16.58;72.41;99367.53;329666;29;18207;-73
2023/05/07 00:19:00;;;;;;;4.22;3.10;;;;;;;16.59;72.40;99363.13;335357;29;4821;-72
2023/05/07 00:19:12;;;;;;;4.20;3.20;;;;;;;16.62;72.38;99368.19;333331;29;18147;-72
2023/05/07 00:19:24;;;;;;;4.47;3.30;;;;;;;16.60;72.42;99364.81;335569;29;4499;-73
2023/05/07 00:19:36;;;;;;;6.20;3.08;;;;;;;16.58;72.38;99367.53;332221;29;5590;-72
2023/05/07 00:19:48;;;;;;;5.72;2.92;;;;;;;16.58;72.33;99362.28;333577;28;19143;-72
2023/05/07 00:20:00;;;;;;;6.15;3.08;;;;;;;16.57;72.84;99365.00;335434;29;5379;-72
2023/05/07 00:20:12;;;;;;;3.80;3.10;;;;;;;16.57;72.68;99359.75;333549;28;19134;-72
2023/05/07 00:20:25;;;;;;;3.72;3.10;;;;;;;16.57;72.97;99363.22;335379;28;5399;-72
2023/05/07 00:20:37;;;;;;;3.78;3.22;;;;;;;16.57;73.26;99365.00;330710;28;17769;-73
2023/05/07 00:20:49;;;;;;;6.78;3.22;;;;;;;16.57;73.17;99359.75;334335;29;4607;-72
2023/05/07 00:21:01;;;;;;;6.72;3.28;;;;;;;16.57;73.02;99362.38;333243;29;9917;-73
2023/05/07 00:21:13;;;;;;;4.28;3.10;;;;;;;16.56;72.44;99360.72;335281;29;4582;-73
2023/05/07 00:21:28;;;;;;;5.97;3.20;;;;;;;16.58;72.84;99366.72;335876;29;5341;-72
2023/05/07 00:21:41;;;;;;;7.32;3.25;;;;;;;16.61;72.69;99361.25;331650;29;17778;-72
2023/05/07 00:21:56;;;;;;;5.38;3.20;;;;;;;16.61;72.63;99361.25;332150;29;18376;-72
2023/05/07 00:22:08;;;;;;;3.80;3.40;;;;;;;16.64;72.77;99365.47;332980;29;18087;-72
2023/05/07 00:22:21;;;;;;;3.50;3.20;;;;;;;16.54;72.32;99359.94;335784;29;4560;-72
2023/05/07 00:22:33;;;;;;;3.38;3.08;;;;;;;16.57;72.76;99359.75;333179;29;18007;-72
2023/05/07 00:22:45;;;;;;;3.50;3.10;;;;;;;16.57;72.91;99362.38;335964;29;4813;-73
2023/05/07 00:22:56;;;;;;;3.72;3.20;;;;;;;16.60;72.68;99369.22;335574;29;16069;-72
2023/05/07 00:23:11;;;;;;;4.20;3.30;;;;;;;16.59;72.87;99363.13;333047;29;17988;-72
2023/05/07 00:23:23;;;;;;;4.43;3.33;;;;;;;16.60;72.95;99359.59;331268;28;18126;-73
2023/05/07 00:23:35;;;;;;;4.85;3.13;;;;;;;16.60;72.81;99354.34;335510;28;4553;-73
2023/05/07 00:23:47;;;;;;;5.22;3.10;;;;;;;16.61;72.62;99363.88;333762;29;4594;-73
2023/05/07 00:24:00;;;;;;;5.00;3.10;;;;;;;16.57;72.54;99359.75;330791;29;17883;-73
2023/05/07 00:24:12;;;;;;;6.97;3.15;;;;;;;16.56;72.59;99352.84;333154;29;5004;-73
2023/05/07 00:24:24;;;;;;;6.53;3.13;;;;;;;16.56;73.00;99348.44;329372;29;16984;-73
2023/05/07 00:24:36;;;;;;;4.60;3.10;;;;;;;16.58;72.87;99356.22;332287;29;5587;-72
2023/05/07 00:24:48;;;;;;;3.67;2.90;;;;;;;16.61;72.84;99345.50;329429;29;17946;-72
2023/05/07 00:25:01;;;;;;;4.20;3.00;;;;;;;16.57;72.49;99351.88;331393;29;4746;-73
2023/05/07 00:25:13;;;;;;;4.40;2.97;;;;;;;16.60;72.37;99353.47;329683;29;10033;-72
2023/05/07 00:25:25;;;;;;;5.63;3.00;;;;;;;16.58;72.29;99351.78;330061;29;5564;-72
2023/05/07 00:25:37;;;;;;;7.45;3.28;;;;;;;16.60;72.09;99354.34;332891;29;5441;-73
2023/05/07 00:25:49;;;;;;;6.35;3.28;;;;;;;16.60;72.46;99354.34;330385;29;18467;-72
2023/05/07 00:26:01;;;;;;;6.28;3.10;;;;;;;16.63;72.37;99348.88;334773;29;5526;-72
2023/05/07 00:26:13;;;;;;;4.82;3.05;;;;;;;16.63;72.29;99346.25;330870;29;16330;-72
2023/05/07 00:26:25;;;;;;;4.57;3.30;;;;;;;16.63;72.49;99351.50;333471;29;4723;-72
2023/05/07 00:26:37;;;;;;;3.80;3.40;;;;;;;16.62;72.67;99341.97;333473;29;4886;-73
2023/05/07 00:26:49;;;;;;;3.50;3.20;;;;;;;16.60;72.75;99356.97;330612;29;4539;-72
2023/05/07 00:27:02;;;;;;;3.88;3.30;;;;;;;16.56;72.95;99347.59;333169;29;4676;-72
2023/05/07 00:27:14;;;;;;;4.32;3.42;;;;;;;16.55;73.09;99351.13;329811;29;18412;-73
2023/05/07 00:27:26;;;;;;;4.97;3.50;;;;;;;16.56;72.43;99347.59;334710;29;4696;-72
2023/05/07 00:27:39;;;;;;;4.82;3.25;;;;;;;16.57;72.51;99350.09;329893;29;18377;-72
2023/05/07 00:27:51;;;;;;;5.07;3.15;;;;;;;16.49;72.31;99351.53;332818;29;4540;-72
2023/05/07 00:28:03;;;;;;;5.07;3.10;;;;;;;16.33;72.65;99347.19;330029;28;9554;-72
2023/05/07 00:28:15;;;;;;;3.70;3.00;;;;;;;16.33;73.05;99349.00;334524;28;4580;-72
2023/05/07 00:28:27;;;;;;;3.60;3.20;;;;;;;16.34;73.42;99348.91;334435;28;5277;-73
2023/05/07 00:28:39;;;;;;;3.78;3.38;;;;;;;16.39;73.44;99346.00;332071;28;19123;-73
2023/05/07 00:28:51;;;;;;;3.78;3.20;;;;;;;16.41;73.37;99343.28;334551;29;5591;-73
2023/05/07 00:29:03;;;;;;;3.45;3.05;;;;;;;16.42;73.67;99347.56;331071;29;16370;-72
2023/05/07 00:29:15;;;;;;;4.20;3.30;;;;;;;16.46;73.54;99351.69;333619;29;5045;-72
2023/05/07 00:29:27;;;;;;;4.00;3.30;;;;;;;16.49;73.38;99343.66;335786;28;10305;-73
2023/05/07 00:29:40;;;;;;;4.05;3.15;;;;;;;16.49;73.29;99341.03;331459;29;18063;-73
2023/05/07 00:29:51;;;;;;;4.10;3.42;;;;;;;16.50;73.04;99342.69;334413;29;5074;-73
2023/05/07 00:30:04;;;;;;;5.78;3.53;;;;;;;16.51;73.56;99339.97;331786;29;17974;-72
2023/05/07 00:30:17;;;;;;;5.55;3.20;;;;;;;16.54;73.31;99344.19;332663;29;4538;-72
2023/05/07 00:30:29;;;;;;;4.80;2.95;;;;;;;16.56;73.13;99337.94;331869;29;18343;-73
2023/05/07 00:30:41;;;;;;;3.95;3.00;;;;;;;16.59;73.06;99336.88;331281;29;5274;-72
2023/05/07 00:30:53;;;;;;;4.85;3.10;;;;;;;16.55;73.10;99343.25;329365;29;16261;-72
2023/05/07 00:31:05;;;;;;;4.38;3.05;;;;;;;16.57;73.15;99349.25;331649;29;4592;-72
2023/05/07 00:31:17;;;;;;;4.88;3.10;;;;;;;16.54;73.30;99344.19;331014;29;10296;-73
2023/05/07 00:31:29;;;;;;;4.15;3.17;;;;;;;16.55;73.19;99343.25;329058;29;18106;-72
2023/05/07 00:31:41;;;;;;;3.72;3.40;;;;;;;16.57;73.32;99338.75;331823;29;5172;-73
2023/05/07 00:31:54;;;;;;;5.30;4.00;;;;;;;16.60;73.31;99350.84;328151;29;10712;-72
2023/05/07 00:32:07;;;;;;;5.90;3.92;;;;;;;16.60;73.24;99343.84;332809;29;4586;-73
2023/05/07 00:32:20;;;;;;;4.78;3.33;;;;;;;16.60;73.33;99346.47;330113;29;18172;-72
2023/05/07 00:32:32;;;;;;;5.38;3.40;;;;;;;16.59;72.91;99350.00;332850;29;4574;-73
2023/05/07 00:32:48;;;;;;;4.20;3.15;;;;;;;16.53;72.55;99350.38;329258;29;18009;-74
2023/05/07 00:33:01;;;;;;;3.20;2.88;;;;;;;16.51;72.42;99347.84;327457;29;17812;-73
2023/05/07 00:33:13;;;;;;;3.45;3.10;;;;;;;16.53;72.63;99347.75;329456;29;17077;-72
2023/05/07 00:33:26;;;;;;;3.42;3.13;;;;;;;16.56;72.34;99337.09;333035;29;4500;-72
2023/05/07 00:33:38;;;;;;;4.50;3.28;;;;;;;16.57;72.76;99341.38;330673;29;18249;-73
2023/05/07 00:33:51;;;;;;;6.68;3.38;;;;;;;16.56;72.83;99351.06;332599;29;4569;-73
2023/05/07 00:34:03;;;;;;;6.68;3.60;;;;;;;16.58;72.80;99343.09;332199;29;5662;-72
2023/05/07 00:34:15;;;;;;;5.15;3.40;;;;;;;16.57;73.05;99350.09;330929;29;19323;-73
2023/05/07 00:34:27;;;;;;;3.90;3.40;;;;;;;16.59;73.03;99342.13;331958;29;4702;-72
2023/05/07 00:34:39;;;;;;;4.38;3.40;;;;;;;16.60;72.79;99348.22;330382;29;18298;-72
2023/05/07 00:34:54;;;;;;;4.50;3.25;;;;;;;16.62;72.85;99347.22;328281;29;17891;-72
2023/05/07 00:35:07;;;;;;;4.70;3.20;;;;;;;16.66;72.91;99353.09;331669;29;4624;-73
2023/05/07 00:35:19;;;;;;;4.22;3.15;;;;;;;16.64;72.56;99350.56;329280;29;8877;-72
2023/05/07 00:35:32;;;;;;;3.53;3.10;;;;;;;16.66;72.43;99348.69;332843;29;4570;-73
2023/05/07 00:35:44;;;;;;;3.35;3.05;;;;;;;16.67;72.45;99349.53;330968;29;18968;-72
2023/05/07 00:36:00;;;;;;;3.30;3.00;;;;;;;16.69;72.57;99348.50;333185;29;4799;-72
2023/05/07 00:36:12;;;;;;;3.25;2.90;;;;;;;16.65;72.62;99344.38;330923;29;17909;-73
2023/05/07 00:36:26;;;;;;;4.10;3.03;;;;;;;16.64;72.31;99350.56;328650;29;17695;-73
2023/05/07 00:36:38;;;;;;;4.28;3.13;;;;;;;16.64;73.06;99350.56;333633;29;11458;-73
2023/05/07 00:36:50;;;;;;;3.30;3.00;;;;;;;16.66;72.86;99356.56;329208;29;18025;-73
2023/05/07 00:37:02;;;;;;;3.10;2.80;;;;;;;16.68;72.89;99344.19;333635;29;5296;-72
2023/05/07 00:37:17;;;;;;;3.13;2.83;;;;;;;16.70;72.50;99350.19;328973;29;16629;-72
2023/05/07 00:37:29;;;;;;;4.20;3.00;;;;;;;16.61;72.11;99356.00;329976;29;17853;-72
2023/05/07 00:37:44;;;;;;;4.95;3.13;;;;;;;16.64;72.54;99349.72;335755;29;5211;-73
2023/05/07 00:37:57;;;;;;;4.20;2.90;;;;;;;16.61;72.23;99353.38;332751;29;18997;-74
2023/05/07 00:38:09;;;;;;;3.25;2.90;;;;;;;16.62;72.29;99349.84;329650;29;17643;-73
2023/05/07 00:38:21;;;;;;;3.30;3.00;;;;;;;16.63;72.59;99348.03;331721;29;6702;-73
2023/05/07 00:38:33;;;;;;;3.50;3.20;;;;;;;16.65;72.71;99352.25;329105;29;18548;-73
2023/05/07 00:38:45;;;;;;;3.97;3.20;;;;;;;16.66;72.56;99353.94;332313;29;4697;-73
2023/05/07 00:39:00;;;;;;;4.72;3.13;;;;;;;16.70;72.37;99344.94;332957;29;5085;-72
2023/05/07 00:39:12;;;;;;;4.93;3.10;;;;;;;16.70;72.10;99354.56;329703;29;17959;-73
2023/05/07 00:39:24;;;;;;;4.15;3.28;;;;;;;16.70;71.57;99355.44;329529;29;18197;-72
2023/05/07 00:39:35;;;;;;;3.90;3.30;;;;;;;16.59;71.35;99352.63;333593;29;5418;-73
2023/05/07 00:39:48;;;;;;;4.00;3.30;;;;;;;16.62;71.71;99352.44;329656;29;4661;-73
2023/05/07 00:40:00;;;;;;;3.88;3.15;;;;;;;16.62;72.25;99356.84;333818;29;5247;-72
2023/05/07 00:40:12;;;;;;;3.67;3.20;;;;;;;16.59;72.01;99352.63;335438;28;5472;-73
2023/05/07 00:40:24;;;;;;;3.55;3.10;;;;;;;16.58;71.86;99350.97;330177;29;18060;-73
2023/05/07 00:40:36;;;;;;;3.70;3.03;;;;;;;16.60;71.63;99354.34;334089;29;4614;-73
2023/05/07 00:40:48;;;;;;;4.00;2.90;;;;;;;16.63;71.71;99343.63;331978;29;18227;-72
2023/05/07 00:41:02;;;;;;;5.32;2.97;;;;;;;16.60;71.79;99356.97;333391;29;4520;-72
2023/05/07 00:41:14;;;;;;;6.15;3.10;;;;;;;16.64;71.70;99349.72;331404;29;19001;-73
2023/05/07 00:41:26;;;;;;;6.47;3.10;;;;;;;16.60;72.33;99343.84;333895;29;5009;-72
2023/05/07 00:41:38;;;;;;;4.75;3.05;;;;;;;16.59;71.71;99357.88;330407;29;4556;-73
2023/05/07 00:41:51;;;;;;;3.55;3.05;;;;;;;16.60;71.78;99346.47;332662;29;18154;-72
2023/05/07 00:42:03;;;;;;;3.45;3.00;;;;;;;16.57;71.75;99354.50;333555;29;4616;-72
2023/05/07 00:42:16;;;;;;;4.07;2.92;;;;;;;16.44;72.20;99356.19;330838;29;18221;-73
2023/05/07 00:42:29;;;;;;;4.47;3.10;;;;;;;16.44;72.36;99348.31;333862;29;4723;-73
2023/05/07 00:42:41;;;;;;;4.32;3.17;;;;;;;16.48;72.42;99352.44;332818;28;18158;-72
2023/05/07 00:42:56;;;;;;;4.18;3.17;;;;;;;16.48;72.40;99355.06;336309;28;4742;-72
2023/05/07 00:43:08;;;;;;;4.25;2.97;;;;;;;16.51;72.29;99354.88;332203;28;17884;-73
2023/05/07 00:43:20;;;;;;;4.10;2.83;;;;;;;16.50;72.22;99350.56;335775;28;5275;-73
2023/05/07 00:43:33;;;;;;;3.78;2.90;;;;;;;16.55;72.25;99351.13;335265;29;4581;-73
2023/05/07 00:43:44;;;;;;;3.80;2.90;;;;;;;16.52;72.66;99357.44;333158;29;19233;-73
2023/05/07 00:43:56;;;;;;;3.70;3.00;;;;;;;16.50;72.74;99353.19;335517;29;5407;-73
2023/05/07 00:44:08;;;;;;;3.95;3.13;;;;;;;16.54;72.09;99355.56;333149;28;16598;-72
2023/05/07 00:44:20;;;;;;;5.15;3.30;;;;;;;16.53;72.31;99355.63;334783;29;5479;-73
2023/05/07 00:44:32;;;;;;;4.85;3.28;;;;;;;16.51;71.92;99354.88;332817;29;5102;-72
2023/05/07 00:44:45;;;;;;;4.05;3.17;;;;;;;16.55;72.43;99359.00;329773;29;18376;-73
2023/05/07 00:44:57;;;;;;;3.50;3.20;;;;;;;16.56;72.67;99358.09;332144;29;4678;-74
2023/05/07 00:45:10;;;;;;;3.72;3.13;;;;;;;16.57;72.54;99351.88;327066;29;18192;-72
2023/05/07 00:45:25;;;;;;;3.97;2.83;;;;;;;16.61;72.46;99361.25;329985;29;5262;-73
2023/05/07 00:45:38;;;;;;;3.97;2.67;;;;;;;16.61;72.26;99355.16;328032;29;17756;-73
2023/05/07 00:45:50;;;;;;;3.20;2.72;;;;;;;16.62;72.24;99352.44;327800;29;19210;-72
2023/05/07 00:46:02;;;;;;;3.13;2.90;;;;;;;16.62;72.39;99349.84;331850;29;5409;-73
2023/05/07 00:46:15;;;;;;;3.08;2.80;;;;;;;16.66;72.18;99351.31;327838;29;18175;-73
2023/05/07 00:46:28;;;;;;;2.95;2.65;;;;;;;16.69;71.99;99358.16;330847;29;5418;-72
2023/05/07 00:46:41;;;;;;;2.97;2.60;;;;;;;16.71;71.92;99348.41;330246;29;18113;-73
2023/05/07 00:46:53;;;;;;;2.85;2.60;;;;;;;16.71;71.66;99353.66;332086;29;4848;-72
2023/05/07 00:47:05;;;;;;;3.28;2.85;;;;;;;16.72;71.79;99350.94;330746;29;18267;-73
2023/05/07 00:47:20;;;;;;;3.90;3.03;;;;;;;16.73;71.89;99349.97;334326;29;4615;-73
2023/05/07 00:47:33;;;;;;;4.32;3.10;;;;;;;16.70;71.48;99355.44;333462;28;17834;-72
2023/05/07 00:47:45;;;;;;;4.32;3.08;;;;;;;16.68;72.10;99351.19;332116;28;19090;-72
2023/05/07 00:48:02;;;;;;;4.85;3.13;;;;;;;16.67;72.24;99355.63;334178;29;4699;-72
2023/05/07 00:48:14;;;;;;;5.03;3.08;;;;;;;16.69;72.36;99348.50;331170;29;17783;-73
2023/05/07 00:48:26;;;;;;;4.75;3.00;;;;;;;16.71;72.48;99345.78;333483;29;5255;-72
2023/05/07 00:48:40;;;;;;;3.83;2.90;;;;;;;16.73;71.96;99355.22;331263;29;16091;-72
2023/05/07 00:48:53;;;;;;;3.90;2.90;;;;;;;16.75;71.77;99352.53;333834;29;5272;-73
2023/05/07 00:49:06;;;;;;;3.75;2.80;;;;;;;16.76;71.64;99355.06;331078;29;18362;-73
2023/05/07 00:49:18;;;;;;;3.20;2.80;;;;;;;16.78;71.63;99354.94;332732;29;5342;-73
2023/05/07 00:49:39;;;;;;;3.45;2.90;;;;;;;16.80;71.45;99354.84;331879;29;18803;-72
2023/05/07 00:49:52;;;;;;;3.70;3.00;;;;;;;16.75;71.15;99347.28;331025;29;18655;-73
2023/05/07 00:50:05;;;;;;;3.70;3.00;;;;;;;16.73;70.64;99352.59;330724;29;18084;-73
2023/05/07 00:50:19;;;;;;;3.90;2.90;;;;;;;16.75;70.97;99350.72;334742;29;5461;-72
2023/05/07 00:50:32;;;;;;;3.38;2.80;;;;;;;16.76;71.12;99349.81;332001;29;18675;-73
2023/05/07 00:50:47;;;;;;;5.68;2.83;;;;;;;16.77;71.07;99351.47;328833;29;17136;-73
2023/05/07 00:50:59;;;;;;;8.35;3.25;;;;;;;16.79;71.20;99351.38;330677;29;19414;-74
2023/05/07 00:51:12;;;;;;;5.90;3.20;;;;;;;16.80;71.13;99350.44;331428;29;4703;-72
2023/05/07 00:51:26;;;;;;;3.63;2.92;;;;;;;16.78;71.66;99349.69;330227;29;17751;-73
2023/05/07 00:51:38;;;;;;;2.83;2.63;;;;;;;16.80;71.52;99349.59;327586;29;5460;-72
2023/05/07 00:51:50;;;;;;;2.90;2.60;;;;;;;16.80;71.32;99350.44;331069;29;5378;-72
2023/05/07 00:52:03;;;;;;;3.80;2.70;;;;;;;16.79;71.72;99351.38;332280;29;4629;-73
2023/05/07 00:52:17;;;;;;;4.22;2.70;;;;;;;16.81;71.80;99351.28;329090;29;17791;-74
2023/05/07 00:52:29;;;;;;;3.67;2.60;;;;;;;16.83;71.84;99355.53;330411;29;16207;-73
2023/05/07 00:52:42;;;;;;;3.47;2.50;;;;;;;16.84;71.79;99351.97;333276;29;5395;-72
2023/05/07 00:52:55;;;;;;;2.92;2.55;;;;;;;16.85;71.81;99351.03;330149;29;18129;-72
2023/05/07 00:53:07;;;;;;;3.28;2.75;;;;;;;16.86;71.65;99355.34;332145;29;4589;-73
2023/05/07 00:53:20;;;;;;;4.18;3.10;;;;;;;16.85;71.69;99352.81;330623;29;19187;-72
2023/05/07 00:53:32;;;;;;;4.20;3.10;;;;;;;16.83;71.31;99349.44;334436;29;5594;-72
2023/05/07 00:53:45;;;;;;;3.10;2.70;;;;;;;16.78;71.18;99353.19;330789;29;18112;-73
2023/05/07 00:53:57;;;;;;;3.40;2.80;;;;;;;16.78;71.11;99353.19;334304;29;4736;-73
2023/05/07 00:54:09;;;;;;;4.95;2.90;;;;;;;16.81;71.56;99353.91;331301;29;18184;-73
2023/05/07 00:54:21;;;;;;;4.90;2.83;;;;;;;16.74;70.68;99354.31;334462;29;4657;-73
2023/05/07 00:54:34;;;;;;;4.03;2.72;;;;;;;16.73;70.85;99355.22;332088;29;9789;-72
2023/05/07 00:54:47;;;;;;;3.67;2.83;;;;;;;16.75;71.25;99353.34;333896;29;5068;-72
2023/05/07 00:55:05;;;;;;;4.30;3.00;;;;;;;16.73;71.20;99354.41;332349;29;17207;-72
2023/05/07 00:55:18;;;;;;;3.97;2.85;;;;;;;16.73;71.50;99344.72;332746;29;18864;-72
2023/05/07 00:55:30;;;;;;;3.72;2.80;;;;;;;16.74;71.42;99346.44;332500;29;18410;-72
2023/05/07 00:55:42;;;;;;;4.22;2.80;;;;;;;16.76;71.07;99349.81;335875;28;5299;-73
2023/05/07 00:55:55;;;;;;;4.20;2.85;;;;;;;16.75;71.02;99348.09;332195;28;18111;-73
2023/05/07 00:56:07;;;;;;;3.67;2.90;;;;;;;16.76;71.25;99347.19;334055;29;5605;-73
2023/05/07 00:56:21;;;;;;;3.10;2.80;;;;;;;16.76;70.83;99344.56;330820;28;18204;-73
2023/05/07 00:56:34;;;;;;;3.70;3.00;;;;;;;16.80;70.86;99344.34;334129;29;4680;-72
2023/05/07 00:56:46;;;;;;;4.53;2.88;;;;;;;16.75;70.93;99350.72;330328;29;16641;-73
2023/05/07 00:56:58;;;;;;;4.28;2.65;;;;;;;16.78;70.70;99342.69;333107;29;5718;-73
2023/05/07 00:57:11;;;;;;;5.22;2.70;;;;;;;16.67;70.98;99344.28;328596;29;17311;-73
2023/05/07 00:57:24;;;;;;;6.18;3.03;;;;;;;16.71;71.22;99341.38;333585;29;5500;-73
2023/05/07 00:57:39;;;;;;;4.93;3.03;;;;;;;16.74;71.05;99349.06;328329;29;18338;-73
2023/05/07 00:57:51;;;;;;;4.25;2.90;;;;;;;16.74;70.49;99346.44;325115;29;17942;-73
2023/05/07 00:58:03;;;;;;;5.50;2.90;;;;;;;16.72;71.05;99348.31;332369;29;8770;-73
2023/05/07 00:58:15;;;;;;;5.35;2.97;;;;;;;16.77;71.03;99340.97;330080;29;18011;-73
2023/05/07 00:58:27;;;;;;;3.17;2.70;;;;;;;16.78;70.96;99345.31;334139;29;4708;-72
2023/05/07 00:58:40;;;;;;;3.38;2.72;;;;;;;16.73;71.32;99339.47;327540;29;17977;-72
2023/05/07 00:58:52;;;;;;;3.58;2.83;;;;;;;16.74;71.23;99341.19;334331;29;5707;-73
2023/05/07 00:59:06;;;;;;;3.58;3.00;;;;;;;16.70;71.39;99347.56;330023;29;18114;-73
2023/05/07 00:59:18;;;;;;;3.70;3.00;;;;;;;16.69;71.20;99343.25;334715;29;4540;-73
2023/05/07 00:59:32;;;;;;;3.30;2.83;;;;;;;16.71;71.49;99336.13;331077;29;18407;-72
2023/05/07 00:59:44;;;;;;;3.67;2.88;;;;;;;16.66;71.34;99338.19;330822;29;17879;-73
2023/05/07 00:59:56;;;;;;;4.03;2.80;;;;;;;16.66;71.61;99335.56;333131;29;4571;-72
2023/05/07 01:00:09;;;;;;;5.68;2.90;;;;;;;16.61;71.46;99340.25;332649;29;9494;-72
2023/05/07 01:00:22;;;;;;;6.07;2.85;;;;;;;16.61;71.55;99342.88;330514;29;19246;-72
2023/05/07 01:00:34;;;;;;;4.43;2.90;;;;;;;16.63;71.58;99338.38;330761;29;10850;-72